Time;durP1;ratioP1;P1;durP2;ratioP2;P2;SDS_P1;SDS_P2;PMS_P1;PMS_P2;Temp;Humidity;BMP_temperature;BMP_pressure;BME280_temperature;BME280_humidity;BME280_pressure;Samples;Min_cycle;Max_cycle;Signal;HPM_P1;HPM_P2
2022/09/19 00:01:41;;;;;;;14.95;3.58;;;12.40;99.90;;;;;;5011141;28;20130;-73
2022/09/19 00:04:18;;;;;;;11.75;3.80;;;12.20;99.90;;;;;;5034767;22;20058;-71
2022/09/19 00:06:46;;;;;;;19.02;3.92;;;12.20;99.90;;;;;;5071352;28;20044;-71
2022/09/19 00:09:15;;;;;;;16.75;4.32;;;12.30;99.90;;;;;;5071083;28;20045;-71
2022/09/19 00:11:44;;;;;;;16.08;4.10;;;12.20;99.90;;;;;;5071198;28;20040;-71
2022/09/19 00:14:14;;;;;;;23.10;7.10;;;12.30;99.90;;;;;;5053879;28;20502;-71
2022/09/19 00:16:44;;;;;;;24.33;5.57;;;12.30;99.90;;;;;;5071190;28;20040;-71
2022/09/19 00:19:12;;;;;;;19.50;3.95;;;12.30;99.90;;;;;;5070943;28;20040;-71
2022/09/19 00:21:40;;;;;;;22.75;4.13;;;12.40;99.90;;;;;;5054289;28;20097;-71
2022/09/19 00:26:57;;;;;;;27.40;4.35;;;;;;;;;;5070641;28;20047;-71
2022/09/19 00:29:23;;;;;;;20.75;4.85;;;12.20;99.90;;;;;;5072264;28;20044;-71
2022/09/19 00:31:50;;;;;;;16.67;4.35;;;;;;;;;;5070988;28;20410;-71
2022/09/19 00:34:17;;;;;;;17.45;5.07;;;12.30;99.90;;;;;;5070383;28;20036;-71
2022/09/19 00:36:43;;;;;;;11.00;3.40;;;12.40;99.90;;;;;;5053969;28;20047;-71
2022/09/19 00:39:12;;;;;;;13.13;3.90;;;12.30;99.90;;;;;;5053930;28;20047;-71
2022/09/19 00:41:38;;;;;;;16.70;4.15;;;;;;;;;;5072091;28;20037;-71
2022/09/19 00:44:21;;;;;;;18.48;4.20;;;12.30;99.90;;;;;;5053578;28;20040;-71
2022/09/19 00:46:47;;;;;;;18.57;4.50;;;;;;;;;;5070512;28;20048;-71
2022/09/19 00:49:19;;;;;;;16.25;3.97;;;12.10;99.90;;;;;;5053852;28;20044;-71
2022/09/19 00:51:59;;;;;;;14.85;3.25;;;12.00;99.90;;;;;;5053779;28;20077;-70
2022/09/19 00:54:31;;;;;;;16.42;3.10;;;12.10;99.90;;;;;;5070144;28;20116;-71
2022/09/19 00:56:58;;;;;;;9.27;3.25;;;12.00;99.90;;;;;;5054015;28;20051;-71
2022/09/19 00:59:29;;;;;;;16.48;4.00;;;12.00;99.90;;;;;;5070515;28;20618;-71
2022/09/19 01:01:56;;;;;;;17.05;4.72;;;12.20;99.90;;;;;;5071735;28;20056;-71
2022/09/19 01:04:24;;;;;;;18.13;5.20;;;12.10;99.90;;;;;;5053125;28;20040;-71
2022/09/19 01:07:30;;;;;;;19.65;5.22;;;12.00;99.90;;;;;;5070251;28;20417;-71
2022/09/19 01:10:01;;;;;;;17.13;4.07;;;12.10;99.90;;;;;;5070387;28;20049;-71
2022/09/19 01:12:55;;;;;;;15.40;3.97;;;12.20;99.90;;;;;;5074059;28;20078;-71
2022/09/19 01:15:54;;;;;;;18.90;4.07;;;12.20;99.90;;;;;;5075331;28;20075;-71
2022/09/19 01:18:46;;;;;;;10.80;3.78;;;12.00;99.90;;;;;;5074469;28;20051;-71
2022/09/19 01:24:41;;;;;;;18.48;4.68;;;12.10;99.90;;;;;;5073960;28;20127;-71
2022/09/19 01:27:28;;;;;;;19.67;4.97;;;12.10;99.90;;;;;;5074111;28;20047;-71
2022/09/19 01:30:05;;;;;;;13.38;4.85;;;12.10;99.90;;;;;;5075619;28;20045;-71
2022/09/19 01:32:51;;;;;;;17.88;4.63;;;12.30;99.90;;;;;;5074135;28;20164;-71
2022/09/19 01:35:23;;;;;;;20.83;3.97;;;12.00;99.90;;;;;;5074028;28;20120;-71
2022/09/19 01:38:15;;;;;;;16.38;4.68;;;12.10;99.90;;;;;;5074250;28;20048;-71
2022/09/19 01:40:42;;;;;;;18.10;4.90;;;11.80;99.90;;;;;;5073889;28;20041;-71
2022/09/19 01:43:13;;;;;;;19.02;3.97;;;12.00;99.90;;;;;;5073919;28;20052;-71
2022/09/19 01:45:39;;;;;;;16.33;3.63;;;;;;;;;;5074785;28;20047;-71
2022/09/19 01:48:06;;;;;;;19.23;4.57;;;;;;;;;;5073737;28;20039;-71
2022/09/19 01:51:02;;;;;;;27.40;6.30;;;12.00;99.90;;;;;;5075251;28;20426;-71
2022/09/19 01:53:52;;;;;;;18.52;5.20;;;12.00;99.90;;;;;;5075119;28;20036;-71
2022/09/19 01:56:39;;;;;;;22.75;4.07;;;12.20;99.90;;;;;;5075108;28;20036;-71
2022/09/19 01:59:46;;;;;;;17.45;3.92;;;12.20;99.90;;;;;;5074070;28;20119;-70
2022/09/19 02:02:23;;;;;;;18.58;4.95;;;12.20;99.90;;;;;;5074177;28;20044;-71
2022/09/19 02:04:58;;;;;;;15.85;3.60;;;12.10;99.90;;;;;;5074563;28;20101;-71
2022/09/19 02:07:43;;;;;;;20.42;4.40;;;12.30;99.90;;;;;;5073528;28;20051;-71
2022/09/19 02:10:13;;;;;;;15.65;4.30;;;12.50;99.90;;;;;;5073776;28;20071;-71
2022/09/19 02:12:42;;;;;;;20.50;2.50;;;12.40;99.90;;;;;;5057010;28;20128;-71
2022/09/19 02:15:11;;;;;;;19.42;3.78;;;12.40;99.90;;;;;;5073215;28;20147;-71
2022/09/19 02:17:44;;;;;;;21.70;3.83;;;12.40;99.90;;;;;;5074939;28;20041;-71
2022/09/19 02:20:22;;;;;;;16.83;3.10;;;12.40;99.90;;;;;;5074921;28;20048;-71
2022/09/19 02:22:53;;;;;;;9.63;2.67;;;12.40;99.90;;;;;;5072882;28;20047;-71
2022/09/19 02:25:28;;;;;;;17.92;3.80;;;12.40;99.90;;;;;;5073979;28;20044;-71
2022/09/19 02:28:05;;;;;;;21.00;3.17;;;12.30;99.90;;;;;;5056466;28;20028;-70
2022/09/19 02:30:32;;;;;;;13.75;2.50;;;12.40;99.90;;;;;;5074550;28;20043;-73
2022/09/19 02:32:58;;;;;;;20.98;3.38;;;12.20;99.90;;;;;;5073010;28;20040;-70
2022/09/19 02:35:39;;;;;;;21.42;4.43;;;12.30;99.90;;;;;;5072671;28;20115;-71
2022/09/19 02:38:19;;;;;;;16.90;2.67;;;12.40;99.90;;;;;;5074104;28;20120;-71
2022/09/19 02:40:58;;;;;;;14.93;3.20;;;12.20;99.90;;;;;;5074408;28;20072;-71
2022/09/19 02:43:32;;;;;;;16.98;3.47;;;12.30;99.90;;;;;;5073178;28;20123;-71
2022/09/19 02:46:13;;;;;;;18.52;3.70;;;12.10;99.90;;;;;;5072478;28;20040;-71
2022/09/19 02:49:14;;;;;;;17.45;3.42;;;12.30;99.90;;;;;;5072756;28;20072;-71
2022/09/19 02:51:54;;;;;;;18.95;3.85;;;12.30;99.90;;;;;;5068961;28;20053;-71
2022/09/19 02:54:26;;;;;;;11.90;2.05;;;12.40;99.90;;;;;;5055625;28;20059;-71
2022/09/19 02:56:56;;;;;;;14.35;2.95;;;12.20;99.90;;;;;;5072490;28;20043;-71
2022/09/19 02:59:29;;;;;;;20.48;3.33;;;12.40;99.90;;;;;;5072548;28;20072;-71
2022/09/19 03:01:59;;;;;;;;;;;12.30;99.90;;;;;;5073215;28;20084;-71
2022/09/19 03:04:32;;;;;;;19.08;3.00;;;12.50;99.90;;;;;;5072005;28;20381;-71
2022/09/19 03:07:27;;;;;;;23.42;3.58;;;12.20;99.90;;;;;;5072292;28;20128;-71
2022/09/19 03:10:12;;;;;;;24.15;3.05;;;12.50;99.90;;;;;;5055856;28;20063;-71
2022/09/19 03:13:00;;;;;;;15.60;2.42;;;12.30;99.90;;;;;;5072456;28;20119;-71
2022/09/19 03:15:40;;;;;;;24.90;3.47;;;12.20;99.90;;;;;;5073141;28;20036;-71
2022/09/19 03:18:09;;;;;;;19.23;3.08;;;12.40;99.90;;;;;;5073403;28;20566;-71
2022/09/19 03:20:37;;;;;;;13.63;2.92;;;12.30;99.90;;;;;;5072006;28;20098;-71
2022/09/19 03:23:04;;;;;;;19.02;4.07;;;12.40;99.90;;;;;;5072222;28;20506;-71
2022/09/19 03:25:30;;;;;;;20.23;4.38;;;12.20;99.90;;;;;;5054991;28;20036;-71
2022/09/19 03:27:57;;;;;;;15.93;2.75;;;;;;;;;;5071842;28;20048;-70
2022/09/19 03:30:23;;;;;;;22.65;3.30;;;12.20;99.90;;;;;;5055429;28;20052;-71
2022/09/19 03:32:50;;;;;;;27.05;3.45;;;;;;;;;;5072135;28;20641;-72
2022/09/19 03:35:15;;;;;;;21.73;3.70;;;12.20;99.90;;;;;;5071834;28;20072;-71
2022/09/19 03:37:41;;;;;;;14.73;3.00;;;;;;;;;;5071890;28;20103;-71
2022/09/19 03:40:08;;;;;;;19.98;2.97;;;12.10;99.90;;;;;;5073007;28;20172;-71
2022/09/19 03:42:35;;;;;;;18.33;2.45;;;12.10;99.90;;;;;;5055134;28;20037;-71
2022/09/19 03:45:01;;;;;;;16.92;3.97;;;12.00;99.90;;;;;;5072746;28;20045;-71
2022/09/19 03:47:27;;;;;;;18.27;3.40;;;;;;;;;;5054757;28;20071;-71
2022/09/19 03:49:53;;;;;;;17.15;3.50;;;12.00;99.90;;;;;;5071572;28;20153;-71
2022/09/19 03:52:19;;;;;;;17.33;3.60;;;11.90;99.90;;;;;;5072665;28;20043;-71
2022/09/19 03:54:45;;;;;;;17.67;4.05;;;12.10;99.90;;;;;;5072413;28;20398;-71
2022/09/19 03:57:12;;;;;;;15.27;2.80;;;11.80;99.90;;;;;;5071294;28;20032;-72
2022/09/19 03:59:39;;;;;;;14.30;2.78;;;11.90;99.90;;;;;;5071560;28;20115;-71
2022/09/19 04:02:06;;;;;;;19.90;3.30;;;11.90;99.90;;;;;;5071307;28;20125;-71
2022/09/19 04:04:32;;;;;;;11.80;2.42;;;12.00;99.90;;;;;;5070998;28;20056;-71
2022/09/19 04:06:58;;;;;;;11.05;2.40;;;11.80;99.90;;;;;;5054343;28;20037;-71
2022/09/19 04:09:25;;;;;;;10.52;2.38;;;11.90;99.90;;;;;;5071339;28;20043;-71
2022/09/19 04:11:51;;;;;;;11.57;2.00;;;;;;;;;;5072272;28;20106;-71
2022/09/19 04:14:17;;;;;;;16.08;2.63;;;11.80;99.90;;;;;;5070627;28;20075;-71
2022/09/19 04:16:43;;;;;;;10.32;1.80;;;;;;;;;;5072481;28;20064;-71
2022/09/19 04:19:12;;;;;;;18.08;2.05;;;;;;;;;;5070930;28;20047;-71
2022/09/19 04:21:41;;;;;;;13.85;2.47;;;11.90;99.90;;;;;;5070927;28;20047;-71
2022/09/19 04:24:08;;;;;;;9.82;2.33;;;;;;;;;;5070483;28;20095;-71
2022/09/19 04:26:34;;;;;;;16.33;2.58;;;;;;;;;;5071052;28;20102;-71
2022/09/19 04:29:02;;;;;;;12.35;2.20;;;;;;;;;;5072109;28;20123;-71
2022/09/19 04:31:38;;;;;;;11.30;2.70;;;11.90;99.90;;;;;;5072259;28;20105;-71
2022/09/19 04:34:08;;;;;;;15.02;3.70;;;11.90;99.90;;;;;;5070545;28;20040;-71
2022/09/19 04:36:34;;;;;;;11.23;3.08;;;11.90;99.90;;;;;;5070704;28;20036;-71
2022/09/19 04:39:04;;;;;;;12.88;3.83;;;12.20;99.90;;;;;;5071877;28;20059;-71
2022/09/19 04:41:34;;;;;;;11.55;3.42;;;12.00;99.90;;;;;;5070718;28;20147;-71
2022/09/19 04:44:00;;;;;;;15.45;3.20;;;11.90;99.90;;;;;;5070208;28;20044;-71
2022/09/19 04:46:27;;;;;;;17.58;3.08;;;;;;;;;;5071693;28;20089;-71
2022/09/19 04:48:55;;;;;;;17.85;3.25;;;12.10;99.90;;;;;;5070426;28;20440;-71
2022/09/19 04:51:21;;;;;;;12.48;2.20;;;12.00;99.90;;;;;;5071686;28;20040;-71
2022/09/19 04:53:47;;;;;;;11.57;2.65;;;12.00;99.90;;;;;;5070580;28;20032;-71
2022/09/19 04:56:13;;;;;;;11.25;2.00;;;12.00;99.90;;;;;;5070785;28;20514;-71
2022/09/19 04:58:40;;;;;;;13.60;2.67;;;;;;;;;;5071884;28;20233;-71
2022/09/19 05:01:06;;;;;;;13.35;2.83;;;12.10;99.90;;;;;;5071926;28;20052;-71
2022/09/19 05:03:32;;;;;;;12.73;2.58;;;12.10;99.90;;;;;;5070741;28;20102;-71
2022/09/19 05:05:59;;;;;;;13.02;2.88;;;12.10;99.90;;;;;;5069913;28;20049;-71
2022/09/19 05:08:27;;;;;;;12.27;2.30;;;12.20;99.90;;;;;;5053582;28;20090;-71
2022/09/19 05:11:01;;;;;;;14.20;2.30;;;12.10;99.90;;;;;;5053708;28;20153;-71
2022/09/19 05:13:29;;;;;;;12.85;2.40;;;12.20;99.90;;;;;;5071689;28;20039;-71
2022/09/19 05:15:56;;;;;;;17.45;1.90;;;12.20;99.90;;;;;;5053455;28;20076;-71
2022/09/19 05:18:22;;;;;;;11.45;1.73;;;12.20;99.90;;;;;;5070097;28;20055;-71
2022/09/19 05:20:52;;;;;;;11.48;1.83;;;12.30;99.90;;;;;;5070440;28;20045;-71
2022/09/19 05:23:19;;;;;;;12.07;2.08;;;;;;;;;;5053623;28;20070;-71
2022/09/19 05:25:45;;;;;;;22.95;4.05;;;;;;;;;;5053379;28;20037;-72
2022/09/19 05:28:11;;;;;;;8.75;1.60;;;12.20;99.90;;;;;;5070194;28;20050;-72
2022/09/19 05:30:46;;;;;;;15.40;2.05;;;12.10;99.90;;;;;;5053470;28;20045;-72
2022/09/19 05:33:12;;;;;;;13.38;2.17;;;12.20;99.90;;;;;;5070197;28;20028;-71
2022/09/19 05:35:38;;;;;;;11.38;2.15;;;;;;;;;;5071229;28;20085;-71
2022/09/19 05:38:04;;;;;;;11.18;2.20;;;12.30;99.90;;;;;;5070465;28;20135;-72
2022/09/19 05:40:30;;;;;;;15.18;2.10;;;12.10;99.90;;;;;;5053293;28;20572;-72
2022/09/19 05:43:05;;;;;;;12.05;2.55;;;;;;;;;;5053353;28;20032;-72
2022/09/19 05:45:31;;;;;;;9.68;2.53;;;12.10;99.90;;;;;;5052872;28;20047;-72
2022/09/19 05:48:06;;;;;;;9.50;1.80;;;12.00;99.90;;;;;;5070015;28;20086;-72
2022/09/19 05:50:35;;;;;;;14.80;2.38;;;12.20;99.90;;;;;;5053242;28;20490;-71
2022/09/19 05:55:45;;;;;;;11.38;1.65;;;12.20;99.90;;;;;;5069481;28;20044;-71
2022/09/19 05:58:13;;;;;;;14.02;2.05;;;12.40;99.90;;;;;;5070067;28;20513;-73
2022/09/19 06:00:39;;;;;;;13.07;2.10;;;12.40;99.90;;;;;;5056926;28;20123;-71
2022/09/19 06:03:07;;;;;;;8.88;1.70;;;12.50;99.90;;;;;;5056810;28;20640;-71
2022/09/19 06:05:41;;;;;;;12.15;1.75;;;12.70;99.90;;;;;;5087992;22;20051;-71
2022/09/19 06:08:07;;;;;;;10.85;1.63;;;12.60;99.90;;;;;;5065323;28;20037;-71
2022/09/19 06:10:38;;;;;;;14.48;2.15;;;12.50;99.90;;;;;;5053080;28;20421;-70
2022/09/19 06:13:05;;;;;;;11.18;2.17;;;;;;;;;;5058469;28;20037;-71
2022/09/19 06:15:31;;;;;;;9.35;1.90;;;;;;;;;;5064720;28;20102;-70
2022/09/19 06:17:57;;;;;;;10.88;2.20;;;12.40;99.90;;;;;;5061449;28;20456;-70
2022/09/19 06:20:23;;;;;;;16.77;2.45;;;;;;;;;;5052514;28;20098;-70
2022/09/19 06:22:51;;;;;;;14.25;1.80;;;;;;;;;;5059017;28;20033;-70
2022/09/19 06:25:18;;;;;;;14.32;3.22;;;;;;;;;;5066737;28;20506;-70
2022/09/19 06:27:53;;;;;;;8.70;2.10;;;12.50;99.90;;;;;;5067940;28;20522;-70
2022/09/19 06:30:19;;;;;;;18.40;2.85;;;;;;;;;;5058140;28;20044;-70
2022/09/19 06:32:45;;;;;;;7.85;1.58;;;;;;;;;;5062625;28;20374;-70
2022/09/19 06:35:10;;;;;;;11.57;2.45;;;12.70;99.90;;;;;;5058902;28;20112;-70
2022/09/19 06:37:36;;;;;;;8.95;2.15;;;12.80;99.90;;;;;;5052583;28;20040;-70
2022/09/19 06:40:02;;;;;;;14.70;2.83;;;12.90;99.90;;;;;;5052620;28;20036;-70
2022/09/19 06:42:28;;;;;;;13.23;2.30;;;13.00;99.90;;;;;;5053884;28;20086;-70
2022/09/19 06:44:54;;;;;;;17.55;3.17;;;13.00;99.90;;;;;;5049301;28;20140;-70
2022/09/19 06:47:19;;;;;;;14.55;3.13;;;12.70;99.90;;;;;;5050601;28;21409;-69
2022/09/19 06:49:45;;;;;;;15.95;2.60;;;;;;;;;;5055927;28;20041;-70
2022/09/19 06:52:11;;;;;;;9.98;3.10;;;13.00;99.90;;;;;;5053357;28;20040;-70
2022/09/19 06:54:36;;;;;;;11.60;2.67;;;13.20;99.90;;;;;;5053090;28;20119;-70
2022/09/19 06:57:03;;;;;;;13.70;3.25;;;;;;;;;;5053566;28;20407;-69
2022/09/19 06:59:28;;;;;;;15.48;3.47;;;13.30;99.90;;;;;;5053864;28;20122;-69
2022/09/19 07:01:54;;;;;;;10.63;2.22;;;;;;;;;;5052280;28;20100;-69
2022/09/19 07:04:20;;;;;;;14.70;3.55;;;13.30;99.90;;;;;;5051247;28;20043;-69
2022/09/19 07:06:46;;;;;;;10.40;2.88;;;;;;;;;;5051782;28;20068;-69
2022/09/19 07:09:12;;;;;;;15.52;2.75;;;13.40;99.90;;;;;;5052627;28;20130;-70
2022/09/19 07:11:38;;;;;;;14.20;2.65;;;13.30;99.90;;;;;;5052539;28;20045;-72
2022/09/19 07:14:04;;;;;;;18.10;2.80;;;13.40;99.90;;;;;;5050969;28;20033;-72
2022/09/19 07:16:31;;;;;;;19.58;3.58;;;13.60;99.90;;;;;;5052188;28;20033;-72
2022/09/19 07:18:56;;;;;;;15.63;3.75;;;13.50;99.90;;;;;;5052083;28;20094;-72
2022/09/19 07:21:22;;;;;;;15.10;2.67;;;13.70;99.90;;;;;;5054023;28;20041;-73
2022/09/19 07:23:48;;;;;;;16.77;2.92;;;13.80;99.90;;;;;;5060054;28;20076;-72
2022/09/19 07:26:14;;;;;;;15.77;2.70;;;13.70;99.90;;;;;;5057529;28;20127;-72
2022/09/19 07:28:40;;;;;;;15.25;3.13;;;13.90;99.90;;;;;;5057279;28;20037;-72
2022/09/19 07:31:06;;;;;;;15.68;2.72;;;14.00;99.90;;;;;;5054087;28;20045;-72
2022/09/19 07:33:32;;;;;;;8.98;2.30;;;;;;;;;;5052033;28;20064;-72
2022/09/19 07:35:58;;;;;;;11.57;3.13;;;;;;;;;;5051597;28;20127;-73
2022/09/19 07:38:27;;;;;;;11.27;2.45;;;14.50;99.90;;;;;;5052303;28;20086;-72
2022/09/19 07:40:54;;;;;;;17.00;2.45;;;;;;;;;;5053348;28;20052;-72
2022/09/19 07:43:19;;;;;;;10.93;3.08;;;14.80;99.90;;;;;;5035446;28;20487;-72
2022/09/19 07:45:47;;;;;;;17.27;2.45;;;14.90;99.90;;;;;;5050804;28;20044;-72
2022/09/19 07:48:14;;;;;;;13.60;2.85;;;14.30;99.90;;;;;;5052935;28;20402;-72
2022/09/19 07:50:40;;;;;;;9.82;1.95;;;14.80;99.90;;;;;;5051531;28;20043;-72
2022/09/19 07:53:16;;;;;;;18.77;3.92;;;15.00;99.90;;;;;;5052583;28;20037;-73
2022/09/19 07:55:43;;;;;;;10.25;2.50;;;;;;;;;;5051995;28;20102;-72
2022/09/19 07:58:11;;;;;;;14.50;2.45;;;14.90;99.90;;;;;;5051424;28;20048;-72
2022/09/19 08:00:38;;;;;;;19.17;4.53;;;14.60;99.90;;;;;;5052569;28;20056;-72
2022/09/19 08:03:10;;;;;;;14.55;3.22;;;14.50;99.90;;;;;;5052454;28;20045;-72
2022/09/19 08:05:39;;;;;;;13.67;3.00;;;14.70;99.90;;;;;;5052253;28;20044;-72
2022/09/19 08:08:05;;;;;;;15.95;2.72;;;14.90;99.90;;;;;;5052476;28;20045;-72
2022/09/19 08:10:32;;;;;;;16.30;3.20;;;15.00;99.90;;;;;;5051440;28;20398;-72
2022/09/19 08:13:05;;;;;;;11.98;3.17;;;15.00;99.90;;;;;;5052447;28;20044;-72
2022/09/19 08:15:33;;;;;;;12.52;2.80;;;15.30;99.90;;;;;;5050552;28;20045;-72
2022/09/19 08:18:00;;;;;;;12.13;3.17;;;15.40;99.90;;;;;;5052288;28;20696;-72
2022/09/19 08:20:29;;;;;;;16.00;3.33;;;15.40;99.90;;;;;;5051218;28;20084;-72
2022/09/19 08:23:04;;;;;;;11.90;2.05;;;15.40;99.90;;;;;;5050484;28;20094;-72
2022/09/19 08:25:32;;;;;;;14.73;3.30;;;15.50;99.90;;;;;;5050572;28;20120;-72
2022/09/19 08:27:58;;;;;;;14.07;3.53;;;;;;;;;;5034168;28;20045;-72
2022/09/19 08:30:25;;;;;;;13.65;2.20;;;15.90;99.90;;;;;;5052251;28;20044;-72
2022/09/19 08:32:51;;;;;;;14.93;2.25;;;15.60;99.90;;;;;;5050763;28;20041;-72
2022/09/19 08:35:18;;;;;;;20.42;2.78;;;15.70;99.90;;;;;;5050387;28;20037;-72
2022/09/19 08:37:44;;;;;;;12.57;1.83;;;15.50;99.90;;;;;;5052066;28;20049;-72
2022/09/19 08:40:16;;;;;;;11.45;2.90;;;15.60;99.90;;;;;;5050671;28;20048;-72
2022/09/19 08:43:07;;;;;;;15.45;2.50;;;15.70;99.90;;;;;;5050774;28;20131;-72
2022/09/19 08:45:33;;;;;;;12.43;2.38;;;;;;;;;;5050165;28;20063;-71
2022/09/19 08:48:04;;;;;;;12.48;3.20;;;15.90;99.90;;;;;;5040414;28;20474;-72
2022/09/19 08:50:32;;;;;;;13.35;3.08;;;15.80;99.90;;;;;;5039679;28;20044;-72
2022/09/19 08:53:01;;;;;;;10.20;2.25;;;15.90;99.90;;;;;;5041160;28;20052;-72
2022/09/19 08:55:31;;;;;;;10.50;2.70;;;15.80;99.90;;;;;;5039015;28;20041;-73
2022/09/19 08:58:00;;;;;;;14.98;2.63;;;16.00;99.90;;;;;;5040062;28;20044;-72
2022/09/19 09:00:31;;;;;;;13.25;2.20;;;16.20;99.90;;;;;;5014042;28;20049;-72
2022/09/19 09:03:04;;;;;;;10.13;2.60;;;16.10;99.90;;;;;;5030555;28;20045;-72
2022/09/19 09:05:42;;;;;;;9.43;2.38;;;16.00;99.90;;;;;;5031411;28;20045;-73
2022/09/19 09:08:38;;;;;;;9.95;2.30;;;15.90;99.90;;;;;;5049165;28;20049;-72
2022/09/19 09:11:26;;;;;;;8.50;2.75;;;16.10;99.90;;;;;;5051546;28;20495;-72
2022/09/19 09:14:14;;;;;;;8.02;1.70;;;16.30;99.90;;;;;;5049540;28;20040;-72
2022/09/19 09:17:24;;;;;;;10.27;1.60;;;16.20;99.90;;;;;;5050465;28;20063;-73
2022/09/19 09:20:03;;;;;;;13.05;2.33;;;16.40;99.90;;;;;;5033563;28;20044;-72
2022/09/19 09:22:39;;;;;;;13.57;2.30;;;16.40;99.90;;;;;;5051547;28;20617;-73
2022/09/19 09:25:10;;;;;;;11.35;2.50;;;16.60;99.90;;;;;;5050051;28;20041;-73
2022/09/19 09:27:45;;;;;;;14.65;3.05;;;16.30;99.90;;;;;;5050073;28;20072;-73
2022/09/19 09:30:17;;;;;;;11.48;2.15;;;16.10;99.90;;;;;;5049989;28;20122;-72
2022/09/19 09:32:54;;;;;;;8.00;1.50;;;15.70;99.90;;;;;;5050494;28;20049;-72
2022/09/19 09:35:34;;;;;;;7.32;1.70;;;15.90;99.90;;;;;;5054874;28;20769;-72
2022/09/19 09:38:15;;;;;;;10.85;2.15;;;15.80;99.90;;;;;;5054074;28;20040;-72
2022/09/19 09:43:29;;;;;;;12.40;2.60;;;16.00;99.90;;;;;;5056445;28;20242;-73
2022/09/19 09:45:59;;;;;;;13.23;3.28;;;16.00;99.90;;;;;;5062334;28;20074;-73
2022/09/19 09:48:33;;;;;;;6.57;1.90;;;16.10;99.90;;;;;;5049796;28;20119;-73
2022/09/19 09:51:39;;;;;;;7.55;2.45;;;15.90;99.90;;;;;;5053710;28;20036;-72
2022/09/19 09:57:57;;;;;;;6.10;2.25;;;15.90;99.90;;;;;;5053949;28;20045;-72
2022/09/19 10:05:59;;;;;;;7.03;1.55;;;15.50;99.90;;;;;;5052875;28;20059;-70
2022/09/19 10:08:34;;;;;;;7.40;1.40;;;15.30;99.90;;;;;;5017229;28;20359;-71
2022/09/19 10:11:12;;;;;;;11.48;1.52;;;15.10;99.90;;;;;;5033604;28;20276;-71
2022/09/19 10:13:56;;;;;;;6.75;1.50;;;15.00;99.90;;;;;;5034679;28;20467;-70
2022/09/19 10:16:23;;;;;;;7.35;1.45;;;;;;;;;;5035941;28;20036;-71
2022/09/19 10:18:54;;;;;;;12.52;2.30;;;15.70;99.90;;;;;;5050898;28;20047;-71
2022/09/19 10:21:20;;;;;;;14.57;1.85;;;;;;;;;;5047757;28;20091;-71
2022/09/19 10:23:46;;;;;;;10.98;2.15;;;;;;;;;;5031764;28;20048;-71
2022/09/19 10:26:15;;;;;;;14.65;3.13;;;16.40;99.90;;;;;;5071287;28;20554;-70
2022/09/19 10:28:53;;;;;;;18.27;2.85;;;16.20;99.90;;;;;;5066345;28;20048;-71
2022/09/19 10:31:34;;;;;;;12.48;2.90;;;16.50;99.90;;;;;;5061476;28;20036;-71
2022/09/19 10:34:05;;;;;;;13.88;3.42;;;16.50;99.90;;;;;;5069298;28;20037;-72
2022/09/19 10:36:33;;;;;;;19.15;2.78;;;16.70;99.90;;;;;;5067239;28;20501;-71
2022/09/19 10:39:09;;;;;;;12.23;2.22;;;16.30;99.90;;;;;;5069190;28;20045;-71
2022/09/19 10:41:35;;;;;;;12.40;2.47;;;15.90;99.90;;;;;;5059754;28;20135;-72
2022/09/19 10:44:09;;;;;;;13.48;3.15;;;16.40;99.90;;;;;;5068409;28;20040;-72
2022/09/19 10:46:49;;;;;;;15.77;2.53;;;16.20;99.90;;;;;;5054737;28;20075;-71
2022/09/19 10:49:25;;;;;;;13.35;2.22;;;16.00;99.90;;;;;;5053565;28;20041;-71
2022/09/19 10:51:53;;;;;;;15.25;2.33;;;16.10;99.90;;;;;;5062120;28;20108;-71
2022/09/19 10:54:25;;;;;;;16.02;3.25;;;16.20;99.90;;;;;;5057019;28;20048;-71
2022/09/19 10:56:51;;;;;;;19.88;3.95;;;;;;;;;;5052087;28;20072;-71
2022/09/19 10:59:36;;;;;;;16.45;3.00;;;16.30;99.90;;;;;;5042528;28;20452;-71
2022/09/19 11:02:07;;;;;;;12.90;2.35;;;16.30;99.90;;;;;;5051775;28;20056;-71
2022/09/19 11:04:35;;;;;;;12.73;2.33;;;16.50;99.90;;;;;;5049285;28;20040;-71
2022/09/19 11:07:16;;;;;;;12.40;2.92;;;16.20;99.90;;;;;;5034959;28;20072;-71
2022/09/19 11:09:43;;;;;;;15.18;2.65;;;15.70;99.90;;;;;;5051407;28;20048;-71
2022/09/19 11:12:17;;;;;;;10.68;1.80;;;15.30;99.90;;;;;;5051313;28;20351;-71
2022/09/19 11:14:48;;;;;;;11.25;2.28;;;15.40;99.90;;;;;;5051515;28;20037;-72
2022/09/19 11:17:32;;;;;;;12.85;3.15;;;15.00;99.90;;;;;;5052017;28;20462;-72
2022/09/19 11:20:27;;;;;;;10.82;2.60;;;14.60;99.90;;;;;;5052065;28;20048;-71
2022/09/19 11:23:10;;;;;;;17.85;3.35;;;14.50;99.90;;;;;;5051991;28;20040;-71
2022/09/19 11:26:09;;;;;;;13.60;2.97;;;14.60;99.90;;;;;;5051712;28;20403;-70
2022/09/19 11:29:13;;;;;;;7.57;2.25;;;14.70;99.90;;;;;;5048322;28;20044;-70
2022/09/19 11:32:03;;;;;;;14.52;2.17;;;14.60;99.90;;;;;;5047829;28;20438;-70
2022/09/19 11:34:46;;;;;;;11.73;2.25;;;14.80;99.90;;;;;;5048379;28;20044;-70
2022/09/19 11:37:15;;;;;;;;;;;15.00;99.90;;;;;;5052277;28;20040;-71
2022/09/19 11:39:54;;;;;;;13.65;2.22;;;14.90;99.90;;;;;;5052090;28;19917;-69
2022/09/19 11:42:55;;;;;;;15.05;2.53;;;15.30;99.90;;;;;;5032503;28;20407;-69
2022/09/19 11:45:22;;;;;;;9.88;1.95;;;15.60;99.90;;;;;;5050229;28;20406;-69
2022/09/19 11:48:07;;;;;;;12.45;2.15;;;15.70;99.90;;;;;;5051594;28;20076;-69
2022/09/19 11:50:33;;;;;;;9.85;1.73;;;;;;;;;;5051553;28;20072;-72
2022/09/19 11:53:01;;;;;;;16.65;2.80;;;;;;;;;;5033680;28;20041;-72
2022/09/19 11:55:46;;;;;;;12.77;2.55;;;15.90;99.90;;;;;;5049860;28;20048;-70
2022/09/19 11:58:33;;;;;;;14.88;2.22;;;15.90;99.90;;;;;;5049345;28;20490;-69
2022/09/19 12:01:25;;;;;;;14.63;2.70;;;16.20;99.90;;;;;;5052201;28;20491;-72
2022/09/19 12:04:16;;;;;;;9.10;1.98;;;16.50;99.90;;;;;;5050769;28;20490;-72
2022/09/19 12:07:12;;;;;;;15.80;2.10;;;16.40;99.90;;;;;;5089992;22;20040;-71
2022/09/19 12:10:00;;;;;;;14.70;2.17;;;16.30;99.90;;;;;;5062781;28;20046;-71
2022/09/19 12:12:30;;;;;;;14.95;2.45;;;16.40;99.90;;;;;;5050317;28;20039;-70
2022/09/19 12:15:14;;;;;;;11.60;3.78;;;15.50;99.90;;;;;;5054063;28;20041;-71
2022/09/19 12:17:43;;;;;;;8.60;1.88;;;14.90;99.90;;;;;;5068560;28;20067;-70
2022/09/19 12:20:33;;;;;;;8.85;1.80;;;14.80;99.90;;;;;;5071436;28;20048;-70
2022/09/19 12:26:03;;;;;;;13.63;2.88;;;14.30;99.90;;;;;;5050202;28;20051;-71
2022/09/19 12:28:44;;;;;;;13.43;2.75;;;14.10;99.90;;;;;;5049847;28;20033;-70
2022/09/19 12:31:13;;;;;;;14.10;2.63;;;14.00;99.90;;;;;;5051271;28;20667;-70
2022/09/19 12:33:47;;;;;;;11.60;2.17;;;13.80;99.90;;;;;;5057293;28;20116;-70
2022/09/19 12:36:20;;;;;;;8.40;2.10;;;13.50;99.90;;;;;;5052042;28;20044;-70
2022/09/19 12:39:19;;;;;;;7.57;1.88;;;13.50;99.90;;;;;;5033357;28;20037;-71
2022/09/19 12:41:55;;;;;;;10.57;3.40;;;13.60;99.90;;;;;;5063449;28;20123;-70
2022/09/19 12:44:36;;;;;;;20.80;3.80;;;13.70;99.90;;;;;;5069783;28;20452;-71
2022/09/19 12:47:07;;;;;;;12.95;3.50;;;13.70;99.90;;;;;;5057747;28;20541;-70
2022/09/19 12:49:57;;;;;;;14.63;4.30;;;13.90;99.90;;;;;;5061872;28;20041;-70
2022/09/19 12:52:36;;;;;;;10.65;2.90;;;13.90;99.90;;;;;;5065356;28;20098;-70
2022/09/19 12:55:20;;;;;;;13.10;3.60;;;14.30;99.90;;;;;;5052542;28;20090;-70
2022/09/19 12:57:52;;;;;;;15.70;2.92;;;14.20;99.90;;;;;;5063284;28;20037;-70
2022/09/19 13:00:20;;;;;;;14.65;2.75;;;14.20;99.90;;;;;;5049415;28;20153;-70
2022/09/19 13:02:54;;;;;;;13.63;3.78;;;14.30;99.90;;;;;;5069158;28;20141;-70
2022/09/19 13:05:33;;;;;;;6.90;1.52;;;14.10;99.90;;;;;;5052759;28;20072;-69
2022/09/19 13:08:14;;;;;;;6.65;1.73;;;14.30;99.90;;;;;;5065646;28;20075;-70
2022/09/19 13:11:10;;;;;;;11.23;1.83;;;14.40;99.90;;;;;;5059173;28;20410;-70
2022/09/19 13:13:42;;;;;;;9.70;1.50;;;14.40;99.90;;;;;;5070476;28;20040;-70
2022/09/19 13:16:11;;;;;;;7.85;1.75;;;14.70;99.90;;;;;;5062411;28;20166;-73
2022/09/19 13:24:37;;;;;;;11.30;2.67;;;15.50;99.90;;;;;;5056784;28;20056;-73
2022/09/19 13:27:04;;;;;;;13.93;2.83;;;15.50;99.90;;;;;;5069310;28;20036;-73
2022/09/19 13:29:30;;;;;;;16.48;2.63;;;15.70;99.90;;;;;;5069007;28;20040;-72
2022/09/19 13:31:56;;;;;;;13.60;3.53;;;;;;;;;;5057751;28;20083;-73
2022/09/19 13:35:00;;;;;;;16.02;2.85;;;15.60;99.90;;;;;;5032051;28;20045;-73
2022/09/19 13:37:25;;;;;;;16.77;3.38;;;15.40;99.90;;;;;;5067263;28;20489;-73
2022/09/19 13:39:51;;;;;;;15.32;3.20;;;;;;;;;;5056809;28;20037;-74
2022/09/19 13:42:27;;;;;;;16.35;3.15;;;15.40;99.90;;;;;;5059070;28;20247;-73
2022/09/19 13:45:05;;;;;;;17.33;2.95;;;15.20;99.90;;;;;;5070054;28;20056;-73
2022/09/19 13:47:31;;;;;;;22.33;3.40;;;;;;;;;;5042511;28;20102;-73
2022/09/19 13:50:22;;;;;;;11.50;3.33;;;15.80;99.90;;;;;;5049974;28;20279;-73
2022/09/19 13:52:58;;;;;;;9.70;1.70;;;16.10;99.90;;;;;;5059832;28;20039;-73